New Hartford, Missouri
Current Conditions -  °F | °C
As of 10:15 AM on Saturday 20 Dec 2014 (Local Time) from KFYG Reporting Station
Haze Haze  
Wind Chill: 33°   Ceiling: 3200
Heat Index: 37°   Visibility: 5mi
Dew Point: 34°   Wind: 6mph
Humidity: 87%   Direction: 150°SSE
Pressure: 30.27"   Gusts: NA
Location:  39.095°N, 91.3649°W
Report Text: KFYG 201615Z AUTO 15005KT 5SM BR FEW010 OVC032 03/01 A3027 RMK AO2
Loading
Personal Weather Stations






























Interactive Weather Map New forecast layout! Learn more

10-Day Weather Forecast

Advertisements
Track Severe Weather on mobile